Latest Weather Observations for Camden

IDN60901

Issued at 11:51 pm EST Thursday 30 June 2016 (issued every 10 minutes, with the page automatically refreshed every 10 minutes)

About weather observations | Map of Sydney area stations | Latest observations for Sydney area | Other Formats
Station Details ID: 068192 Name: CAMDEN AIRPORT AWS Lat: -34.04 Lon: 150.69 Height: 73.9 m
Data from the previous 72 hours. | See also: Recent months at Camden
Date/Time
EST
Temp
°C
App
Temp
°C
Dew
Point
°C
Rel
Hum
%
Delta-T
°C
Wind Press
QNH
hPa
Press
MSL
hPa
Rain since
9am
mm
Dir  Spd
km/h
Gust
km/h
Spd
kts
Gust
kts
30/11:30pm 3.6 1.8 1.0 83 1.0 CALM 0 0 0 0 1014.4 1014.5 0.0
30/11:00pm 3.6 1.8 1.0 83 1.0 CALM 0 0 0 0 1014.4 1014.5 0.0
30/10:30pm 4.2 2.2 -0.2 73 1.7 CALM 0 7 0 4 1014.7 1014.8 0.0
30/10:00pm 5.5 3.2 0.5 70 1.9 NE 2 9 1 5 1015.1 1015.2 0.0
30/09:30pm 4.8 1.5 0.2 72 1.8 NNW 7 9 4 5 1015.6 1015.6 0.0
30/09:00pm 7.1 5.1 -0.1 60 2.8 CALM 0 0 0 0 1015.6 1015.6 0.0
30/08:30pm 7.7 4.5 -0.5 56 3.2 N 6 11 3 6 1015.7 1015.7 0.0
30/08:00pm 9.6 5.6 0.2 52 3.8 NNW 11 19 6 10 1015.6 1015.6 0.0
30/07:30pm 9.3 4.5 0.2 53 3.7 NNW 15 20 8 11 1015.5 1015.5 0.0
30/07:00pm 10.8 5.9 -0.6 45 4.6 NW 15 19 8 10 1015.5 1015.5 0.0
30/06:30pm 11.9 7.4 -0.6 42 5.1 NNW 13 20 7 11 1015.3 1015.4 0.0
30/06:00pm 12.3 8.3 0.4 44 5.0 NNW 11 15 6 8 1015.1 1015.2 0.0
30/05:30pm 11.7 6.8 2.2 52 4.1 NNW 17 20 9 11 1014.6 1014.7 0.0
30/05:00pm 12.3 8.1 1.6 48 4.6 NW 13 15 7 8 1014.8 1014.9 0.0
30/04:30pm 13.7 9.8 1.4 43 5.3 NW 11 19 6 10 1014.7 1014.8 0.0
30/04:00pm 12.5 8.3 1.8 48 4.6 NW 13 17 7 9 1014.9 1015.0 0.0
30/03:30pm 10.7 7.8 4.8 67 2.7 N 9 15 5 8 1014.8 1014.9 0.0
30/03:00pm 10.8 9.5 4.0 63 3.0 CALM 0 0 0 0 1014.9 1015.0 0.0
30/02:30pm 11.3 9.0 4.7 64 3.0 NW 6 7 3 4 1015.2 1015.3 0.0
30/02:00pm 11.5 8.9 4.0 60 3.4 NNW 7 9 4 5 1015.8 1015.8 0.0
30/01:30pm 12.0 9.0 4.2 59 3.5 N 9 11 5 6 1016.1 1016.1 0.0
30/01:00pm 12.4 9.5 4.9 60 3.5 N 9 11 5 6 1016.6 1016.6 0.0
30/12:30pm 11.9 9.1 5.1 63 3.1 NNW 9 11 5 6 1017.6 1017.6 0.0
30/12:00pm 11.0 8.5 4.5 64 2.9 NNW 7 11 4 6 1018.1 1018.1 0.0
30/11:30am 10.8 8.3 4.7 66 2.8 N 7 13 4 7 1019.0 1019.0 0.0
30/11:00am 10.5 7.9 4.4 66 2.7 NNW 7 9 4 5 1019.7 1019.8 0.0
30/10:30am 9.2 7.2 4.6 73 2.0 NNW 4 7 2 4 1020.2 1020.3 0.0
30/10:00am 6.9 4.9 4.2 83 1.2 NNW 4 7 2 4 1020.6 1020.7 0.0
30/09:30am 5.2 3.6 4.3 94 0.4 N 2 7 1 4 1021.0 1021.1 0.0
30/09:00am 2.9 1.4 2.8 99 0.0 CALM 0 0 0 0 1021.1 1021.2 0.0
30/08:41am 1.4 -0.4 1.3 99 0.0 CALM 0 0 0 0 1021.1 1021.2 0.0
30/08:30am 0.3 -1.7 0.2 99 0.0 CALM 0 0 0 0 1021.1 1021.2 0.0
30/08:21am -0.3 -2.3 -0.4 99 0.0 CALM 0 0 0 0 1021.1 1021.2 0.0
30/08:00am -1.0 -3.1 -1.1 99 0.0 CALM 0 0 0 0 1021.2 1021.3 0.0
30/07:30am -1.8 -4.0 -1.9 99 0.0 CALM 0 0 0 0 1021.2 1021.3 0.0
30/07:00am -1.9 -4.2 -2.0 99 -0.1 CALM 0 0 0 0 1021.2 1021.3 0.0
30/06:30am -1.6 -3.8 -1.7 99 0.0 CALM 0 0 0 0 1021.3 1021.4 0.0
30/06:00am -1.3 -3.5 -1.4 99 0.0 CALM 0 0 0 0 1021.5 1021.6 0.0
30/05:30am -1.2 -3.4 -1.3 99 0.0 CALM 0 0 0 0 1021.6 1021.7 0.0
30/05:00am -0.5 -2.6 -0.6 99 0.0 CALM 0 0 0 0 1021.7 1021.8 0.0
30/04:30am -0.6 -2.7 -0.7 99 0.0 CALM 0 0 0 0 1021.8 1021.9 0.0
30/04:00am -0.3 -2.3 -0.4 99 0.0 CALM 0 0 0 0 1022.0 1022.1 0.0
30/03:30am 0.1 -1.9 0.0 99 0.0 CALM 0 0 0 0 1022.3 1022.4 0.0
30/03:00am 0.4 -1.5 0.3 99 0.0 CALM 0 0 0 0 1022.5 1022.6 0.0
30/02:30am 0.8 -1.1 0.5 98 0.1 CALM 0 0 0 0 1023.1 1023.2 0.0
30/02:00am 1.3 -0.5 1.0 98 0.1 CALM 0 0 0 0 1023.5 1023.6 0.0
30/01:42am 1.1 -0.7 1.0 99 0.0 CALM 0 0 0 0 1023.7 1023.8 0.0
30/01:30am 1.7 0.0 1.6 99 0.0 CALM 0 0 0 0 1023.7 1023.8 0.0
30/01:08am 1.6 -0.2 1.3 98 0.1 CALM 0 0 0 0 1023.9 1024.0 0.0
30/01:06am 1.6 -0.2 1.3 98 0.1 CALM 0 0 0 0 1023.9 1024.0 0.0
30/01:04am 1.6 -0.2 1.3 98 0.1 CALM 0 0 0 0 1023.9 1024.0 0.0
30/01:03am 1.7 -0.1 1.3 97 0.2 CALM 0 0 0 0 1023.9 1024.0 0.0
30/01:00am 1.8 0.0 1.5 98 0.1 CALM 0 0 0 0 1023.9 1024.0 0.0
30/12:30am 2.1 0.4 1.8 98 0.1 CALM 0 0 0 0 1024.1 1024.2 0.0
30/12:02am 2.3 0.6 2.0 98 0.1 CALM 0 0 0 0 1024.4 1024.5 0.0
30/12:00am 2.4 0.7 2.1 98 0.1 CALM 0 0 0 0 1024.4 1024.5 0.0
 
Date/Time
EST
Temp
°C
App
Temp
°C
Dew
Point
°C
Rel
Hum
%
Delta-T
°C
Wind Press
QNH
hPa
Press
MSL
hPa
Rain since
9am
mm
Dir  Spd
km/h
Gust
km/h
Spd
kts
Gust
kts
29/11:53pm 2.7 1.1 2.4 98 0.1 CALM 0 0 0 0 1024.5 1024.6 0.0
29/11:37pm 2.6 1.0 2.5 99 0.0 CALM 0 0 0 0 1024.7 1024.8 0.0
29/11:30pm 3.5 2.1 3.4 99 0.0 CALM 0 0 0 0 1024.8 1024.9 0.0
29/11:29pm 3.4 2.0 3.3 99 0.0 CALM 0 0 0 0 1024.8 1024.9 0.0
29/11:00pm 2.8 1.2 2.4 97 0.2 CALM 0 0 0 0 1025.3 1025.4 0.0
29/10:55pm 2.9 1.3 2.5 97 0.2 CALM 0 0 0 0 1025.3 1025.4 0.0
29/10:45pm 3.5 2.1 3.4 99 0.0 CALM 0 0 0 0 1025.3 1025.4 0.0
29/10:30pm 4.1 2.7 3.8 98 0.1 CALM 0 0 0 0 1025.3 1025.4 0.0
29/10:16pm 3.8 2.3 3.2 96 0.2 CALM 0 0 0 0 1025.4 1025.5 0.0
29/10:00pm 3.7 2.2 2.8 94 0.4 CALM 0 0 0 0 1025.5 1025.6 0.0
29/09:30pm 4.3 2.9 3.4 94 0.4 CALM 0 0 0 0 1025.5 1025.6 0.0
29/09:00pm 4.5 3.0 3.2 91 0.5 CALM 0 0 0 0 1025.7 1025.8 0.0
29/08:30pm 5.0 3.6 3.3 89 0.7 CALM 0 0 0 0 1025.9 1026.0 0.0
29/08:00pm 5.9 4.6 4.1 88 0.8 CALM 0 0 0 0 1025.9 1026.0 0.0
29/07:30pm 6.3 4.7 4.3 87 0.9 NNW 2 7 1 4 1025.8 1025.9 0.0
29/07:00pm 7.3 6.1 4.8 84 1.1 CALM 0 0 0 0 1025.8 1025.9 0.0
29/06:30pm 9.1 6.7 4.5 73 2.0 S 6 7 3 4 1025.7 1025.8 0.0
29/06:00pm 9.3 8.0 4.1 70 2.3 CALM 0 0 0 0 1025.4 1025.5 0.0
29/05:30pm 11.8 9.4 4.1 59 3.5 NE 6 6 3 3 1025.3 1025.4 0.0
29/05:00pm 13.5 11.0 3.6 51 4.4 NE 6 7 3 4 1025.2 1025.3 0.0
29/04:30pm 15.7 12.9 3.2 43 5.7 NE 7 9 4 5 1025.2 1025.3 0.0
29/04:00pm 16.7 13.3 1.6 36 6.7 NNE 9 15 5 8 1025.2 1025.3 0.0
29/03:30pm 17.6 15.0 3.1 38 6.7 NE 6 11 3 6 1025.1 1025.2 0.0
29/03:00pm 17.7 14.7 2.1 35 7.0 NNE 7 13 4 7 1025.1 1025.2 0.0
29/02:30pm 17.9 15.1 1.8 34 7.3 N 6 11 3 6 1025.1 1025.2 0.0
29/02:00pm 17.6 14.8 2.0 35 7.0 NNE 6 13 3 7 1025.2 1025.3 0.0
29/01:30pm 17.6 14.7 2.4 36 6.9 NNE 7 11 4 6 1025.5 1025.6 0.0
29/01:00pm 17.8 14.9 2.5 36 7.0 NNE 7 13 4 7 1025.9 1026.0 0.0
29/12:30pm 17.1 14.5 3.4 40 6.4 NW 6 9 3 5 1026.3 1026.4 0.0
29/12:00pm 16.3 14.1 5.3 48 5.2 N 6 9 3 5 1026.8 1026.9 0.0
29/11:30am 14.9 13.0 4.9 51 4.7 NNW 4 9 2 5 1027.2 1027.3 0.0
29/11:00am 14.1 13.0 5.2 55 4.2 CALM 0 0 0 0 1027.7 1027.8 0.0
29/10:30am 12.1 10.9 4.6 60 3.4 CALM 0 0 0 0 1028.2 1028.3 0.0
29/10:00am 11.2 10.0 4.7 64 2.9 CALM 0 0 0 0 1028.5 1028.6 0.0
29/09:30am 8.3 7.0 4.1 75 1.8 CALM 0 0 0 0 1028.7 1028.8 0.0
29/09:00am 5.8 4.4 3.6 86 0.9 CALM 0 0 0 0 1028.5 1028.6 0.0
29/08:30am 3.7 2.1 2.5 92 0.5 CALM 0 0 0 0 1028.4 1028.5 0.0
29/08:00am 2.2 0.5 2.1 99 0.0 CALM 0 0 0 0 1028.3 1028.4 0.0
29/07:30am 0.8 -1.1 0.7 99 0.0 CALM 0 0 0 0 1028.1 1028.2 0.0
29/07:00am 0.1 -1.9 -0.2 98 0.1 CALM 0 0 0 0 1027.8 1027.9 0.0
29/06:30am 0.3 -1.7 0.0 98 0.1 CALM 0 0 0 0 1027.7 1027.8 0.0
29/06:00am 0.6 -1.3 0.3 98 0.1 CALM 0 0 0 0 1027.6 1027.7 0.0
29/05:30am 0.6 -1.3 0.3 98 0.1 CALM 0 0 0 0 1027.3 1027.4 0.0
29/05:00am 0.0 -2.0 -0.4 97 0.1 CALM 0 7 0 4 1027.2 1027.3 0.0
29/04:30am 0.2 -1.8 -0.2 97 0.1 CALM 0 6 0 3 1027.0 1027.1 0.0
29/04:00am 0.8 -1.1 0.4 97 0.1 CALM 0 0 0 0 1026.7 1026.8 0.0
29/03:30am 0.4 -1.6 -0.3 95 0.3 CALM 0 0 0 0 1026.9 1027.0 0.0
29/03:00am 1.1 -0.8 0.7 97 0.1 CALM 0 0 0 0 1027.0 1027.1 0.0
29/02:30am 1.4 -0.5 0.8 96 0.2 CALM 0 0 0 0 1027.0 1027.1 0.0
29/02:00am 1.5 -0.4 0.8 95 0.3 CALM 0 0 0 0 1027.1 1027.2 0.0
29/01:30am 1.3 -0.7 0.0 91 0.5 CALM 0 0 0 0 1027.1 1027.2 0.0
29/01:00am 1.9 -0.4 0.3 89 0.6 SE 2 7 1 4 1027.2 1027.3 0.0
29/12:30am 3.3 1.7 2.3 93 0.4 CALM 0 0 0 0 1027.4 1027.5 0.0
29/12:00am 3.0 0.0 2.0 93 0.4 S 7 9 4 5 1027.4 1027.5 0.0
 
Date/Time
EST
Temp
°C
App
Temp
°C
Dew
Point
°C
Rel
Hum
%
Delta-T
°C
Wind Press
QNH
hPa
Press
MSL
hPa
Rain since
9am
mm
Dir  Spd
km/h
Gust
km/h
Spd
kts
Gust
kts
28/11:30pm 2.8 -0.7 1.2 89 0.6 SSE 9 11 5 6 1027.6 1027.7 0.0
28/11:00pm 3.8 -0.1 1.2 83 1.0 SE 11 13 6 7 1027.6 1027.7 0.0
28/10:30pm 4.0 1.1 1.2 82 1.1 SSW 6 9 3 5 1027.4 1027.5 0.0
28/10:00pm 4.3 2.5 1.0 79 1.3 CALM 0 0 0 0 1027.4 1027.5 0.0
28/09:30pm 5.3 3.8 3.0 85 1.0 CALM 0 0 0 0 1027.2 1027.3 0.0
28/09:00pm 5.0 3.3 2.0 81 1.2 CALM 0 0 0 0 1027.1 1027.2 0.0
28/08:30pm 6.4 4.4 2.5 76 1.6 WNW 2 9 1 5 1027.1 1027.2 0.0
28/08:00pm 6.6 3.8 2.1 73 1.8 W 6 7 3 4 1026.9 1027.0 0.0
28/07:30pm 7.0 4.2 1.9 70 2.1 W 6 9 3 5 1026.7 1026.8 0.0
28/07:00pm 8.2 3.7 2.4 67 2.4 WSW 15 17 8 9 1026.2 1026.3 0.0
28/06:30pm 9.5 5.4 2.4 61 3.0 W 13 15 7 8 1025.7 1025.8 0.0
28/06:00pm 10.1 6.5 2.7 60 3.2 W 11 15 6 8 1025.3 1025.4 0.0
28/05:30pm 10.8 7.5 2.4 56 3.6 W 9 11 5 6 1024.9 1025.0 0.0
28/05:00pm 11.8 7.4 2.5 53 4.0 W 15 19 8 10 1024.5 1024.6 0.0
28/04:30pm 13.4 9.3 2.3 47 4.9 W 13 20 7 11 1024.2 1024.3 0.0
28/04:00pm 14.5 9.3 2.7 45 5.2 W 19 22 10 12 1024.0 1024.1 0.0
28/03:30pm 15.2 9.4 2.4 42 5.7 WSW 22 30 12 16 1023.8 1023.9 0.0
28/03:00pm 15.6 10.2 2.4 41 5.9 W 20 28 11 15 1023.3 1023.4 0.0
28/02:30pm 15.8 10.1 2.6 41 6.0 W 22 30 12 16 1023.0 1023.1 0.0
28/02:00pm 15.9 11.1 2.7 41 5.9 WSW 17 26 9 14 1022.9 1023.0 0.0
28/01:30pm 16.0 11.3 3.4 43 5.8 WSW 17 22 9 12 1022.9 1023.0 0.0
28/01:00pm 15.5 10.3 2.7 42 5.7 WSW 19 28 10 15 1022.9 1023.0 0.0
28/12:30pm 14.9 9.5 2.4 43 5.6 WSW 20 32 11 17 1023.2 1023.3 0.0
28/12:00pm 14.3 9.0 1.6 42 5.5 WSW 19 26 10 14 1023.2 1023.3 0.0
28/11:30am 14.3 8.9 2.5 45 5.2 WSW 20 30 11 16 1023.6 1023.7 0.0
28/11:00am 13.9 8.8 2.8 47 4.9 WSW 19 26 10 14 1024.1 1024.2 0.0
28/10:30am 12.6 6.4 1.9 48 4.6 SW 24 32 13 17 1024.3 1024.4 0.0
28/10:00am 12.0 5.7 1.3 48 4.5 SW 24 35 13 19 1024.4 1024.5 0.0
28/09:30am 11.6 6.7 1.8 51 4.2 SW 17 20 9 11 1024.2 1024.3 0.0
28/09:00am 10.8 7.0 1.6 53 3.9 SSW 11 20 6 11 1023.7 1023.8 0.2
28/08:30am 9.5 6.1 1.9 59 3.2 SSW 9 17 5 9 1023.5 1023.6 0.2
28/08:00am 8.7 4.4 1.1 59 3.1 SSW 13 20 7 11 1023.0 1023.1 0.2
28/07:30am 7.8 4.3 1.2 63 2.7 SW 9 17 5 9 1022.7 1022.8 0.2
28/07:00am 7.5 2.9 1.4 65 2.5 SW 15 19 8 10 1022.1 1022.2 0.2
28/06:30am 7.7 3.8 1.1 63 2.7 SW 11 19 6 10 1021.7 1021.8 0.2
28/06:00am 7.1 4.0 1.2 66 2.4 SSE 7 9 4 5 1021.2 1021.3 0.2
28/05:30am 6.8 4.5 0.7 65 2.4 SW 2 6 1 3 1020.7 1020.8 0.2
28/05:00am 6.6 3.4 0.7 66 2.3 SE 7 11 4 6 1020.3 1020.4 0.2
28/04:30am 7.8 3.5 1.2 63 2.7 SW 13 19 7 10 1019.8 1019.9 0.2
28/04:00am 7.3 3.8 1.2 65 2.5 SSW 9 19 5 10 1019.6 1019.7 0.2
28/03:30am 7.7 3.8 0.9 62 2.7 SSW 11 20 6 11 1019.3 1019.4 0.2
28/03:00am 8.3 3.6 1.0 60 3.0 WSW 15 24 8 13 1019.1 1019.1 0.2
28/02:30am 8.2 3.9 0.9 60 3.0 WSW 13 19 7 10 1018.8 1018.8 0.2
28/02:00am 8.8 3.4 1.0 58 3.2 WSW 19 28 10 15 1018.5 1018.5 0.2
28/01:30am 8.6 2.9 0.8 58 3.2 WSW 20 28 11 15 1018.2 1018.2 0.2
28/01:00am 8.8 3.4 1.0 58 3.2 WSW 19 33 10 18 1018.2 1018.2 0.2
28/12:30am 8.8 2.4 1.0 58 3.2 WSW 24 32 13 17 1018.3 1018.3 0.2
28/12:00am 8.7 3.1 1.1 59 3.1 WSW 20 28 11 15 1018.4 1018.4 0.2

Latest Capital City Observations: Canberra | Sydney | Melbourne | Brisbane | Adelaide | Perth | Hobart | Darwin

Other Formats:

Comma delimited format used in spreadsheet applications
http://www.bom.gov.au/fwo/IDN60901/IDN60901.94755.axf

JavaScript Object Notation format (JSON) in row-major order
http://www.bom.gov.au/fwo/IDN60901/IDN60901.94755.json